Time;durP1;ratioP1;P1;durP2;ratioP2;P2;SDS_P1;SDS_P2;PMS_P1;PMS_P2;Temp;Humidity;BMP_temperature;BMP_pressure;BME280_temperature;BME280_humidity;BME280_pressure;Samples;Min_cycle;Max_cycle;Signal;HPM_P1;HPM_P2
2022/02/08 00:00:41;;;;;;;12.20;1.53;;;;;;;2.75;100.00;101369.88;7393554;19;20992;-54
2022/02/08 00:03:12;;;;;;;12.90;1.97;;;;;;;2.74;100.00;101368.13;7397903;19;20407;-53
2022/02/08 00:05:44;;;;;;;7.70;2.00;;;;;;;2.72;100.00;101374.72;7387454;19;20451;-57
2022/02/08 00:08:13;;;;;;;11.47;1.97;;;;;;;2.73;100.00;101361.22;7391224;19;20384;-56
2022/02/08 00:10:45;;;;;;;14.67;2.40;;;;;;;2.69;100.00;101365.19;7388727;19;20418;-55
2022/02/08 00:13:15;;;;;;;4.57;1.20;;;;;;;2.68;100.00;101373.56;7391533;19;20387;-54
2022/02/08 00:15:44;;;;;;;6.87;1.70;;;;;;;2.72;100.00;101366.19;7385716;19;20437;-57
2022/02/08 00:18:15;;;;;;;8.50;2.07;;;;;;;2.72;100.00;101364.53;7396128;19;20418;-54
2022/02/08 00:20:44;;;;;;;15.53;1.47;;;;;;;2.69;100.00;101361.72;7386884;19;20455;-55
2022/02/08 00:23:14;;;;;;;7.97;1.57;;;;;;;2.71;100.00;101357.66;7390897;19;20392;-58
2022/02/08 00:25:46;;;;;;;15.53;2.13;;;;;;;2.72;100.00;101359.41;7386058;19;20435;-57
2022/02/08 00:28:16;;;;;;;10.03;2.40;;;;;;;2.67;100.00;101355.63;7391907;19;20403;-56
2022/02/08 00:30:48;;;;;;;8.43;1.47;;;;;;;2.65;100.00;101352.94;7387033;19;20411;-57
2022/02/08 00:33:19;;;;;;;17.57;2.50;;;;;;;2.65;100.00;101349.50;7390413;19;20391;-52
2022/02/08 00:35:49;;;;;;;11.30;1.77;;;;;;;2.62;100.00;101350.13;7386860;19;20419;-57
2022/02/08 00:38:18;;;;;;;3.00;1.33;;;;;;;2.61;100.00;101350.88;7391727;19;20371;-53
2022/02/08 00:40:55;;;;;;;11.03;1.90;;;;;;;2.62;100.00;101346.69;7387604;19;20423;-56
2022/02/08 00:43:26;;;;;;;15.03;2.00;;;;;;;2.62;100.00;101347.56;7391763;19;20388;-54
2022/02/08 00:46:00;;;;;;;22.77;1.53;;;;;;;2.61;100.00;101347.47;7385900;19;20410;-55
2022/02/08 00:48:37;;;;;;;9.13;1.60;;;;;;;2.62;100.00;101336.50;7386543;19;20382;-56
2022/02/08 00:51:06;;;;;;;4.60;1.73;;;;;;;2.62;100.00;101339.94;7391541;19;20394;-52
2022/02/08 00:53:36;;;;;;;7.10;1.57;;;;;;;2.61;100.00;101334.72;7386862;19;20468;-58
2022/02/08 00:56:08;;;;;;;5.67;1.33;;;;;;;2.62;100.00;101337.38;7389946;19;20400;-58
2022/02/08 00:58:38;;;;;;;6.30;1.17;;;;;;;2.66;100.00;101339.44;7387846;19;20384;-55
2022/02/08 01:01:07;;;;;;;7.73;1.60;;;;;;;2.69;100.00;101334.59;7391647;19;20383;-55
2022/02/08 01:03:37;;;;;;;12.00;1.73;;;;;;;2.68;100.00;101330.25;7387437;19;20426;-55
2022/02/08 01:06:08;;;;;;;13.07;2.43;;;;;;;2.72;100.00;101323.75;7390104;19;20922;-53
2022/02/08 01:08:40;;;;;;;7.27;1.80;;;;;;;2.72;100.00;101322.88;7388509;19;20394;-56
2022/02/08 01:11:13;;;;;;;10.00;1.43;;;;;;;2.76;100.00;101323.25;7392215;19;20383;-52
2022/02/08 01:13:44;;;;;;;4.10;1.20;;;;;;;2.77;100.00;101321.59;7388931;19;20928;-53
2022/02/08 01:16:13;;;;;;;7.83;2.47;;;;;;;2.76;100.00;101315.59;7389463;19;20767;-55
2022/02/08 01:18:45;;;;;;;9.90;1.77;;;;;;;2.82;100.00;101316.09;7389209;19;20394;-54
2022/02/08 01:21:14;;;;;;;11.50;1.43;;;;;;;2.82;100.00;101305.91;7392158;19;20732;-55
2022/02/08 01:23:44;;;;;;;4.10;1.13;;;;;;;2.84;100.00;101314.56;7384791;19;20376;-55
2022/02/08 01:26:18;;;;;;;10.47;1.47;;;;;;;2.86;100.00;101307.03;7390236;19;20430;-54
2022/02/08 01:28:53;;;;;;;4.17;1.67;;;;;;;2.84;100.00;101304.38;7388384;19;20418;-58
2022/02/08 01:31:23;;;;;;;15.07;3.10;;;;;;;2.82;100.00;101297.38;7391921;19;20476;-56
2022/02/08 01:36:50;;;;;;;16.57;1.37;;;;;;;2.84;100.00;101293.28;7390277;19;20415;-57
2022/02/08 01:39:26;;;;;;;4.13;1.37;;;;;;;2.83;100.00;101297.50;7388061;19;20425;-54
2022/02/08 01:44:46;;;;;;;9.10;2.10;;;;;;;2.78;100.00;101286.03;7390843;19;20441;-56
2022/02/08 01:47:25;;;;;;;13.93;2.00;;;;;;;2.68;100.00;101279.28;7398319;19;20387;-51
2022/02/08 01:50:06;;;;;;;17.03;4.10;;;;;;;2.66;100.00;101267.22;7394957;19;20506;-53
2022/02/08 01:52:36;;;;;;;8.57;1.97;;;;;;;2.61;100.00;101259.16;7400564;19;20398;-51
2022/02/08 01:55:08;;;;;;;21.90;3.30;;;;;;;2.65;100.00;101247.56;7394350;19;20457;-51
2022/02/08 01:57:41;;;;;;;14.17;2.97;;;;;;;2.63;100.00;101244.00;7398784;19;20372;-54
2022/02/08 02:00:12;;;;;;;4.57;1.50;;;;;;;2.58;100.00;101238.53;7356728;19;20386;-54
2022/02/08 02:02:44;;;;;;;10.83;3.13;;;;;;;2.58;100.00;101230.00;7397497;19;20400;-55
2022/02/08 02:05:14;;;;;;;3.87;2.07;;;;;;;2.53;100.00;101221.97;7362847;19;20437;-55
2022/02/08 02:07:49;;;;;;;9.77;2.97;;;;;;;2.49;100.00;101223.41;7398685;19;20388;-53
2022/02/08 02:10:21;;;;;;;12.43;3.33;;;;;;;2.49;100.00;101208.09;7373939;19;20411;-57
2022/02/08 02:12:56;;;;;;;10.73;4.20;;;;;;;2.45;100.00;101195.88;7397993;19;20387;-52
2022/02/08 02:15:26;;;;;;;4.30;2.53;;;;;;;2.39;100.00;101186.09;7373709;19;20513;-54
2022/02/08 02:17:56;;;;;;;21.90;3.73;;;;;;;2.39;100.00;101175.00;7398070;19;20404;-55
2022/02/08 02:20:26;;;;;;;10.80;1.80;;;;;;;2.35;100.00;101162.81;7371783;19;20398;-57
2022/02/08 02:22:55;;;;;;;10.33;3.27;;;;;;;2.34;100.00;101155.91;7397625;19;20391;-52
2022/02/08 02:25:30;;;;;;;15.23;5.33;;;;;;;2.29;100.00;101147.91;7369565;19;20430;-58
2022/02/08 02:28:02;;;;;;;24.37;3.07;;;;;;;2.27;100.00;101135.03;7397326;19;20393;-52
2022/02/08 02:30:33;;;;;;;11.57;4.47;;;;;;;2.29;100.00;101119.88;7393582;19;20419;-54
2022/02/08 02:33:03;;;;;;;14.03;4.27;;;;;;;2.28;100.00;101111.38;7396994;19;20380;-53
2022/02/08 02:35:33;;;;;;;12.13;4.03;;;;;;;2.31;100.00;101090.34;7393067;19;20437;-54
2022/02/08 02:38:05;;;;;;;21.43;6.27;;;;;;;2.34;100.00;101085.50;7396680;19;20371;-54
2022/02/08 02:40:42;;;;;;;14.57;5.67;;;;;;;2.36;100.00;101083.06;7393745;19;20409;-57
2022/02/08 02:43:12;;;;;;;20.03;6.60;;;;;;;2.39;100.00;101063.84;7396136;19;21010;-54
2022/02/08 02:45:41;;;;;;;23.97;6.30;;;;;;;2.41;100.00;101062.28;7387141;19;20411;-54
2022/02/08 02:48:11;;;;;;;15.67;6.40;;;;;;;2.43;100.00;101055.66;7396534;19;20757;-55
2022/02/08 02:50:40;;;;;;;9.63;4.70;;;;;;;2.50;100.00;101057.03;7362647;19;20462;-50
2022/02/08 02:53:10;;;;;;;13.10;5.70;;;;;;;2.55;100.00;101045.56;7395779;19;20843;-52
2022/02/08 02:55:42;;;;;;;12.80;5.17;;;;;;;2.58;100.00;101049.09;7344451;19;20490;-55
2022/02/08 02:58:11;;;;;;;15.37;5.37;;;;;;;2.60;100.00;101052.69;7388033;19;20391;-55
2022/02/08 03:00:47;;;;;;;33.07;6.77;;;;;;;2.66;100.00;101042.97;7393302;19;20411;-52
2022/02/08 03:03:28;;;;;;;22.77;6.67;;;;;;;2.69;100.00;101040.66;7397015;19;20402;-54
2022/02/08 03:19:31;;;;;;;19.37;8.80;;;;;;;2.95;100.00;101021.38;7394051;19;20957;-55
2022/02/08 03:22:00;;;;;;;23.73;8.10;;;;;;;3.00;100.00;101017.53;7398636;19;20415;-55
2022/02/08 03:24:30;;;;;;;26.70;9.33;;;;;;;3.04;100.00;101011.91;7392912;19;20497;-55
2022/02/08 03:27:02;;;;;;;23.27;7.30;;;;;;;3.04;100.00;101017.00;7393999;19;20491;-56
2022/02/08 03:29:31;;;;;;;22.17;7.30;;;;;;;3.05;100.00;101026.44;7388722;19;20450;-55
2022/02/08 03:32:00;;;;;;;16.97;8.97;;;;;;;3.10;100.00;101019.13;7395808;19;20386;-52
2022/02/08 03:34:30;;;;;;;18.50;7.90;;;;;;;3.14;100.00;101020.25;7380832;19;20411;-54
2022/02/08 03:36:59;;;;;;;14.70;6.17;;;;;;;3.20;100.00;101003.75;7393790;19;20750;-55
2022/02/08 03:39:36;;;;;;;26.00;10.00;;;;;;;3.27;100.00;101010.19;7371427;19;20454;-56
2022/02/08 03:42:17;;;;;;;21.73;7.73;;;;;;;3.27;100.00;101000.00;7395000;19;20392;-56
2022/02/08 03:44:49;;;;;;;20.57;7.97;;;;;;;3.32;100.00;100998.69;7358907;19;20454;-58
2022/02/08 03:47:20;;;;;;;12.73;6.00;;;;;;;3.35;100.00;101006.56;7394576;19;20395;-56
2022/02/08 03:49:49;;;;;;;14.80;6.00;;;;;;;3.40;100.00;101013.66;7359305;19;20414;-56
2022/02/08 03:52:23;;;;;;;30.50;9.53;;;;;;;3.44;100.00;101013.13;7395481;19;20394;-57
2022/02/08 03:54:52;;;;;;;30.50;9.90;;;;;;;3.47;100.00;100995.50;7354848;19;20423;-58
2022/02/08 03:57:26;;;;;;;17.40;6.77;;;;;;;3.48;100.00;100994.72;7394859;19;20380;-55
2022/02/08 03:59:55;;;;;;;26.43;10.03;;;;;;;3.51;100.00;100993.31;7362668;19;20413;-55
2022/02/08 04:02:38;;;;;;;22.83;8.50;;;;;;;3.53;100.00;100978.09;7395105;19;20387;-56
2022/02/08 04:05:14;;;;;;;15.13;5.63;;;;;;;3.53;100.00;100978.09;7390458;19;20763;-55
2022/02/08 04:07:47;;;;;;;24.30;10.20;;;;;;;3.61;100.00;100982.13;7392989;19;20383;-53
2022/02/08 04:10:21;;;;;;;19.90;6.70;;;;;;;3.59;100.00;100973.44;7348563;19;20399;-56
2022/02/08 04:13:04;;;;;;;22.10;9.53;;;;;;;3.62;100.00;100973.69;7394636;19;20398;-56
2022/02/08 04:15:48;;;;;;;21.27;8.17;;;;;;;3.67;100.00;100976.56;7356977;19;20431;-54
2022/02/08 04:18:43;;;;;;;22.53;8.27;;;;;;;3.65;100.00;100983.22;7394631;19;20473;-53
2022/02/08 04:35:35;;;;;;;28.27;11.80;;;;;;;3.87;100.00;100978.03;7368482;19;20437;-53
2022/02/08 04:38:15;;;;;;;22.73;8.70;;;;;;;3.90;100.00;100969.69;7393508;19;20754;-55
2022/02/08 04:40:56;;;;;;;42.17;14.67;;;;;;;3.90;100.00;100945.03;7390856;19;20418;-57
2022/02/08 04:43:40;;;;;;;33.93;10.80;;;;;;;3.90;100.00;100944.16;7372111;19;20443;-59
2022/02/08 04:46:25;;;;;;;15.80;6.70;;;;;;;3.92;100.00;100953.72;7391250;19;20443;-53
2022/02/08 04:48:57;;;;;;;24.70;9.47;;;;;;;3.97;100.00;100953.13;7389999;19;20429;-55
2022/02/08 04:51:32;;;;;;;27.57;9.40;;;;;;;4.00;100.00;100961.03;7393807;19;20402;-57
2022/02/08 04:54:13;;;;;;;35.80;9.97;;;;;;;4.03;100.00;100956.13;7390184;19;20403;-54
2022/02/08 05:00:03;;;;;;;28.43;11.10;;;;;;;4.09;100.00;100945.47;7357217;19;20388;-54
2022/02/08 05:44:01;;;;;;;28.40;11.70;;;;;;;4.58;100.00;100910.56;7396608;19;20387;-53
2022/02/08 05:49:39;;;;;;;34.80;11.17;;;;;;;4.68;100.00;100888.19;7374051;19;20414;-50
2022/02/08 05:54:53;;;;;;;20.67;9.00;;;;;;;4.68;100.00;100868.59;7362175;19;20402;-56
2022/02/08 05:57:23;;;;;;;29.83;10.80;;;;;;;4.67;100.00;100871.94;7398848;19;20388;-56
2022/02/08 05:59:53;;;;;;;16.77;6.40;;;;;;;4.72;100.00;100855.25;7363723;19;20738;-57
2022/02/08 06:02:22;;;;;;;18.03;9.20;;;;;;;4.75;100.00;100851.13;7399466;19;20391;-57
2022/02/08 06:04:52;;;;;;;33.90;16.80;;;;;;;4.79;100.00;100845.44;7369782;19;20422;-58
2022/02/08 06:07:24;;;;;;;24.40;11.20;;;;;;;4.81;100.00;100859.22;7396713;19;20387;-52
2022/02/08 06:09:56;;;;;;;31.50;12.70;;;;;;;4.83;100.00;100858.53;7395230;19;20408;-56
2022/02/08 06:12:26;;;;;;;40.07;16.37;;;;;;;4.86;100.00;100868.06;7398802;19;20724;-57
2022/02/08 06:15:01;;;;;;;28.20;11.50;;;;;;;4.91;100.00;100868.41;7371811;19;20399;-53
2022/02/08 06:17:31;;;;;;;28.10;13.80;;;;;;;4.94;100.00;100861.81;7398115;19;20391;-56
2022/02/08 06:20:00;;;;;;;32.07;12.13;;;;;;;4.94;100.00;100872.06;7396173;19;20950;-54
2022/02/08 06:22:33;;;;;;;31.50;14.80;;;;;;;4.97;100.00;100877.34;7398210;19;20391;-57
2022/02/08 06:25:02;;;;;;;47.43;17.30;;;;;;;5.00;100.00;100886.91;7354687;19;20396;-53
2022/02/08 06:27:31;;;;;;;40.37;15.40;;;;;;;4.98;100.00;100883.38;7397161;19;20395;-55
2022/02/08 06:30:01;;;;;;;33.80;15.50;;;;;;;5.02;100.00;100869.09;7381072;19;20434;-53
2022/02/08 06:32:32;;;;;;;39.87;15.70;;;;;;;5.09;100.00;100871.28;7397994;19;20406;-57
2022/02/08 06:35:06;;;;;;;15.80;7.23;;;;;;;5.06;100.00;100881.28;7370688;19;20737;-54
2022/02/08 06:37:40;;;;;;;26.53;12.50;;;;;;;5.09;100.00;100872.16;7397856;19;20386;-55
2022/02/08 06:40:11;;;;;;;36.30;15.47;;;;;;;5.09;100.00;100874.72;7394260;19;20416;-55
2022/02/08 06:42:43;;;;;;;37.37;16.43;;;;;;;5.16;100.00;100873.44;7397586;19;20395;-56
2022/02/08 06:45:15;;;;;;;25.33;12.37;;;;;;;5.17;100.00;100875.22;7377824;19;20423;-57
2022/02/08 06:47:50;;;;;;;29.20;12.20;;;;;;;5.21;100.00;100881.41;7395504;19;20788;-53
2022/02/08 06:50:19;;;;;;;27.53;9.73;;;;;;;5.27;100.00;100881.81;7394203;19;20496;-55
2022/02/08 06:52:51;;;;;;;31.83;13.63;;;;;;;5.34;100.00;100894.22;7396704;19;20387;-58
2022/02/08 06:55:24;;;;;;;34.77;17.30;;;;;;;5.51;100.00;100891.88;7392604;19;20412;-55
2022/02/08 06:58:01;;;;;;;32.93;14.07;;;;;;;5.40;100.00;100883.53;7396986;19;20383;-56
2022/02/08 07:00:34;;;;;;;21.10;10.20;;;;;;;5.39;100.00;100872.38;7371020;19;20428;-55
2022/02/08 07:03:07;;;;;;;26.47;10.37;;;;;;;5.44;100.00;100865.00;7396280;19;20408;-53
2022/02/08 07:05:38;;;;;;;39.97;15.93;;;;;;;5.45;100.00;100865.91;7395676;19;20511;-56
2022/02/08 07:08:11;;;;;;;42.20;12.97;;;;;;;5.48;100.00;100872.09;7398947;19;20401;-55
2022/02/08 07:10:42;;;;;;;39.73;13.20;;;;;;;5.47;100.00;100865.22;7363802;19;20473;-55
2022/02/08 07:13:11;;;;;;;26.73;12.23;;;;;;;5.48;100.00;100851.63;7400664;19;20386;-55
2022/02/08 07:15:41;;;;;;;25.67;10.37;;;;;;;5.45;100.00;100836.09;7367173;19;20449;-56
2022/02/08 07:18:10;;;;;;;29.20;13.73;;;;;;;5.44;100.00;100849.63;7399442;19;20392;-57
2022/02/08 07:20:40;;;;;;;43.20;17.70;;;;;;;5.46;100.00;100853.22;7396812;19;20791;-55
2022/02/08 07:23:13;;;;;;;52.60;17.77;;;;;;;5.44;100.00;100839.41;7396479;19;20398;-56
2022/02/08 07:25:42;;;;;;;29.50;11.70;;;;;;;5.44;100.00;100835.97;7391200;19;20426;-51
2022/02/08 07:28:12;;;;;;;42.33;17.23;;;;;;;5.46;100.00;100840.41;7397134;19;20404;-52
2022/02/08 07:30:43;;;;;;;53.37;18.13;;;;;;;5.49;100.00;100842.28;7392613;19;20407;-55
2022/02/08 07:33:12;;;;;;;40.23;16.37;;;;;;;5.46;100.00;100836.94;7398126;19;20393;-58
2022/02/08 07:35:48;;;;;;;49.60;19.63;;;;;;;5.50;100.00;100829.56;7394634;19;20453;-58
2022/02/08 07:38:24;;;;;;;52.40;18.43;;;;;;;5.48;100.00;100831.16;7396053;19;20390;-56
2022/02/08 07:43:37;;;;;;;35.23;15.13;;;;;;;5.52;100.00;100816.88;7380502;19;20386;-56
2022/02/08 07:46:07;;;;;;;34.10;13.87;;;;;;;5.53;100.00;100823.75;7392887;19;20432;-54
2022/02/08 07:48:36;;;;;;;29.27;11.60;;;;;;;5.56;100.00;100813.72;7391530;19;20387;-56
2022/02/08 07:51:08;;;;;;;37.83;13.83;;;;;;;5.58;100.00;100806.16;7394285;19;20395;-53
2022/02/08 07:53:40;;;;;;;54.23;22.10;;;;;;;5.62;100.00;100796.19;7392379;19;20382;-52
2022/02/08 07:56:12;;;;;;;41.20;16.37;;;;;;;5.66;100.00;100802.38;7392568;19;20771;-55
2022/02/08 07:58:42;;;;;;;42.80;18.27;;;;;;;5.67;100.00;100801.59;7391862;19;20388;-56
2022/02/08 08:01:11;;;;;;;37.43;14.20;;;;;;;5.74;100.00;100795.19;7395148;19;20437;-56
2022/02/08 08:03:43;;;;;;;48.43;18.43;;;;;;;5.79;100.00;100789.53;7395717;19;20406;-56
2022/02/08 08:06:14;;;;;;;42.87;15.93;;;;;;;5.79;100.00;100794.66;7395753;19;20496;-56
2022/02/08 08:08:47;;;;;;;35.60;15.70;;;;;;;5.82;100.00;100788.84;7389929;19;20385;-57
2022/02/08 08:11:21;;;;;;;24.73;11.00;;;;;;;5.85;100.00;100785.59;7394208;19;20387;-56
2022/02/08 08:13:59;;;;;;;36.20;16.97;;;;;;;5.88;100.00;100770.41;7391511;19;20405;-56
2022/02/08 08:16:41;;;;;;;34.87;14.87;;;;;;;5.89;100.00;100752.59;7397300;19;20426;-55
2022/02/08 08:19:23;;;;;;;45.57;17.50;;;;;;;5.92;100.00;100755.34;7390683;19;20861;-57
2022/02/08 08:21:53;;;;;;;43.03;14.17;;;;;;;5.94;100.00;100745.16;7394255;19;20740;-55
2022/02/08 08:24:26;;;;;;;65.30;24.23;;;;;;;6.03;100.00;100743.22;7392751;19;20513;-57
2022/02/08 08:26:56;;;;;;;88.57;28.87;;;;;;;6.07;100.00;100749.41;7391625;19;20414;-59
2022/02/08 08:29:25;;;;;;;106.40;42.60;;;;;;;6.15;100.00;100735.34;7389804;19;20399;-57
2022/02/08 08:31:56;;;;;;;38.03;16.00;;;;;;;6.13;100.00;100734.41;7395163;19;20393;-59
2022/02/08 08:34:26;;;;;;;111.07;39.33;;;;;;;6.20;100.00;100727.94;7380936;19;20972;-58
2022/02/08 08:36:56;;;;;;;32.53;14.87;;;;;;;6.22;100.00;100731.50;7391296;19;20484;-57
2022/02/08 08:39:37;;;;;;;32.07;13.00;;;;;;;6.23;100.00;100730.69;7390639;19;20421;-54
2022/02/08 08:50:29;;;;;;;25.83;10.63;;;;;;;6.29;100.00;100723.38;7357218;19;21132;-58
2022/02/08 08:52:59;;;;;;;19.43;8.33;;;;;;;6.30;100.00;100732.81;7391672;19;20393;-58
2022/02/08 08:55:31;;;;;;;12.10;5.70;;;;;;;6.33;100.00;100735.59;7346885;19;20427;-57
2022/02/08 08:58:01;;;;;;;19.70;9.20;;;;;;;6.39;100.00;100734.16;7392715;19;20819;-56
2022/02/08 09:00:32;;;;;;;31.93;12.23;;;;;;;6.41;100.00;100730.00;7389741;19;20407;-58
2022/02/08 09:03:02;;;;;;;20.07;10.40;;;;;;;6.40;100.00;100724.00;7392248;19;20386;-56
2022/02/08 09:05:33;;;;;;;18.10;9.43;;;;;;;6.42;100.00;100750.59;7362594;19;20474;-58
2022/02/08 09:08:04;;;;;;;28.53;11.83;;;;;;;6.44;100.00;100750.69;7392017;19;20459;-57
2022/02/08 09:10:46;;;;;;;19.23;7.17;;;;;;;6.45;100.00;100749.88;7341725;19;20445;-57
2022/02/08 09:13:25;;;;;;;16.97;10.00;;;;;;;6.47;100.00;100722.69;7392165;19;20405;-51
2022/02/08 09:16:05;;;;;;;18.77;9.33;;;;;;;6.48;100.00;100730.44;7389901;19;20425;-56
2022/02/08 09:24:30;;;;;;;21.73;9.13;;;;;;;6.48;100.00;100703.94;7390761;19;21039;-57
2022/02/08 09:27:20;;;;;;;27.47;9.20;;;;;;;6.49;100.00;100705.69;7392913;19;20415;-59
2022/02/08 09:29:52;;;;;;;20.50;9.63;;;;;;;6.52;100.00;100694.75;7388205;19;20427;-55
2022/02/08 09:32:32;;;;;;;12.47;6.30;;;;;;;6.50;100.00;100707.47;7392524;19;20390;-55
2022/02/08 09:35:01;;;;;;;16.70;7.87;;;;;;;6.53;100.00;100723.03;7365296;19;20401;-59
2022/02/08 09:37:33;;;;;;;18.27;8.20;;;;;;;6.54;100.00;100722.25;7394763;19;20745;-53
2022/02/08 09:40:03;;;;;;;9.40;5.20;;;;;;;6.53;100.00;100717.91;7387658;19;20422;-59
2022/02/08 09:42:38;;;;;;;17.07;8.37;;;;;;;6.56;100.00;100707.81;7392125;19;20392;-56
2022/02/08 09:45:11;;;;;;;8.60;3.90;;;;;;;6.54;100.00;100709.41;7387017;19;20417;-57
2022/02/08 09:47:46;;;;;;;22.80;7.67;;;;;;;6.56;100.00;100701.81;7391229;19;20391;-58
2022/02/08 09:50:21;;;;;;;9.73;5.47;;;;;;;6.55;100.00;100724.00;7389308;19;20408;-59
2022/02/08 09:52:54;;;;;;;18.60;5.57;;;;;;;6.55;100.00;100721.44;7391662;19;20400;-57
2022/02/08 09:55:24;;;;;;;12.63;4.83;;;;;;;6.56;100.00;100718.06;7364320;19;20422;-58
2022/02/08 09:57:57;;;;;;;14.27;6.20;;;;;;;6.59;100.00;100725.97;7395013;19;20405;-59
2022/02/08 10:00:27;;;;;;;23.93;9.70;;;;;;;6.61;100.00;100732.03;7390682;19;20439;-59
2022/02/08 10:03:06;;;;;;;6.70;4.00;;;;;;;6.60;100.00;100729.38;7391525;19;20786;-59
2022/02/08 10:05:46;;;;;;;24.87;11.83;;;;;;;6.76;100.00;100726.00;7352298;19;20512;-59
2022/02/08 10:08:16;;;;;;;15.90;8.60;;;;;;;6.64;100.00;100740.69;7398402;19;20394;-60
2022/02/08 10:10:46;;;;;;;15.47;7.17;;;;;;;6.62;100.00;100733.81;7369049;19;20963;-60
2022/02/08 10:13:56;;;;;;;11.57;7.23;;;;;;;6.63;100.00;100750.09;7398124;19;20738;-58
2022/02/08 10:19:47;;;;;;;16.47;8.37;;;;;;;6.63;100.00;100732.13;7394415;19;20784;-60
2022/02/08 10:22:15;;;;;;;13.67;7.03;;;;;;;6.61;100.00;100746.53;7397760;19;20921;-60
2022/02/08 10:24:50;;;;;;;19.30;8.40;;;;;;;6.64;100.00;100758.66;7396755;19;20417;-60
2022/02/08 10:27:28;;;;;;;16.57;6.63;;;;;;;6.65;100.00;100750.19;7397356;19;20393;-60
2022/02/08 10:30:26;;;;;;;26.13;4.27;;;;;;;6.62;100.00;100756.88;7373127;19;20435;-60
2022/02/08 10:38:27;;;;;;;19.47;6.50;;;;;;;6.66;100.00;100754.50;7401827;19;20398;-60
2022/02/08 10:40:57;;;;;;;27.13;8.43;;;;;;;6.67;100.00;100769.97;7401165;19;20995;-60
2022/02/08 10:43:32;;;;;;;24.70;6.10;;;;;;;6.67;100.00;100771.66;7398216;19;20389;-61
2022/02/08 10:46:04;;;;;;;10.17;4.67;;;;;;;6.67;100.00;100766.53;7398704;19;20434;-60
2022/02/08 10:48:41;;;;;;;16.20;7.93;;;;;;;6.67;100.00;100763.97;7366888;19;20394;-63
2022/02/08 10:51:13;;;;;;;21.00;5.90;;;;;;;6.69;100.00;100764.94;7398984;19;20410;-61
2022/02/08 10:53:54;;;;;;;21.40;8.53;;;;;;;6.68;100.00;100764.06;7376005;19;20418;-62
2022/02/08 10:56:28;;;;;;;16.13;6.57;;;;;;;6.66;100.00;100768.19;7397157;19;20425;-60
2022/02/08 10:59:11;;;;;;;14.80;6.63;;;;;;;6.69;100.00;100780.31;7374884;19;20437;-61
2022/02/08 11:01:51;;;;;;;15.73;5.40;;;;;;;6.70;100.00;100769.25;7398784;19;20388;-60
2022/02/08 11:04:32;;;;;;;12.90;6.80;;;;;;;6.69;100.00;100767.50;7394166;19;20448;-60
2022/02/08 11:07:16;;;;;;;21.07;5.10;;;;;;;6.68;100.00;100764.06;7394354;19;20433;-60
2022/02/08 11:10:03;;;;;;;13.97;6.40;;;;;;;6.68;100.00;100770.84;7349025;19;20441;-60
2022/02/08 11:12:37;;;;;;;17.37;6.00;;;;;;;6.70;100.00;100769.25;7396516;19;20393;-60
2022/02/08 11:18:14;;;;;;;101.93;30.80;;;;;;;6.81;100.00;100775.88;7395900;19;20384;-60
2022/02/08 11:20:48;;;;;;;22.10;8.07;;;;;;;6.80;100.00;100774.13;7392742;19;20443;-61
2022/02/08 11:23:24;;;;;;;44.97;13.77;;;;;;;6.81;100.00;100783.59;7400233;19;20402;-60
2022/02/08 11:25:55;;;;;;;15.03;6.30;;;;;;;6.80;100.00;100779.25;7394082;19;20413;-60
2022/02/08 11:28:33;;;;;;;29.70;10.47;;;;;;;6.82;100.00;100784.47;7396246;19;20374;-61
2022/02/08 11:31:13;;;;;;;20.40;7.27;;;;;;;6.83;100.00;100781.97;7394534;19;20548;-61
2022/02/08 11:34:05;;;;;;;15.60;7.07;;;;;;;6.82;100.00;100787.91;7364839;19;20488;-62
2022/02/08 11:45:33;;;;;;;17.23;7.80;;;;;;;6.88;100.00;100782.28;7369360;19;21007;-58
2022/02/08 11:48:19;;;;;;;27.47;9.47;;;;;;;6.95;100.00;100783.47;7392829;19;20391;-58
2022/02/08 11:53:40;;;;;;;14.63;5.60;;;;;;;6.86;100.00;100788.97;7390147;19;20407;-59
2022/02/08 11:56:38;;;;;;;14.73;6.10;;;;;;;6.86;100.00;100791.53;7396801;19;20439;-58
2022/02/08 11:59:28;;;;;;;9.13;3.80;;;;;;;6.82;100.00;100787.91;7352921;19;20422;-58
2022/02/08 12:02:40;;;;;;;22.93;7.90;;;;;;;6.90;100.00;100778.09;7392677;19;20387;-59
2022/02/08 12:05:20;;;;;;;12.43;4.30;;;;;;;6.92;100.00;100791.03;7382486;19;20425;-59
2022/02/08 12:07:56;;;;;;;16.30;5.70;;;;;;;6.87;100.00;100789.06;7394302;19;20867;-58
2022/02/08 12:10:30;;;;;;;12.10;6.00;;;;;;;6.91;100.00;100794.38;7362169;19;20416;-59
2022/02/08 12:13:23;;;;;;;12.40;5.57;;;;;;;6.94;100.00;100804.81;7393589;19;20390;-60
2022/02/08 12:32:43;;;;;;;13.13;5.10;;;;;;;6.95;100.00;100796.31;7393630;19;20466;-58
2022/02/08 12:35:34;;;;;;;11.93;5.10;;;;;;;6.94;100.00;100797.13;7377800;19;20450;-57
2022/02/08 12:54:38;;;;;;;24.37;12.33;;;;;;;7.01;100.00;100810.38;7389834;19;20422;-57
2022/02/08 12:57:24;;;;;;;19.10;6.30;;;;;;;6.96;100.00;100822.06;7390785;19;20407;-58
2022/02/08 13:00:11;;;;;;;9.90;4.77;;;;;;;6.98;100.00;100820.47;7368369;19;20497;-57
2022/02/08 13:02:53;;;;;;;7.37;2.57;;;;;;;6.95;100.00;100834.78;7392340;19;20389;-59
2022/02/08 13:05:59;;;;;;;6.80;2.37;;;;;;;6.94;100.00;100843.28;7388198;19;20414;-56
2022/02/08 13:20:03;;;;;;;28.87;15.07;;;;;;;7.01;100.00;100845.41;7388884;19;20414;-58
2022/02/08 14:06:59;;;;;;;3.93;1.70;;;;;;;6.80;100.00;100861.31;7395052;19;20434;-57
2022/02/08 14:10:00;;;;;;;2.70;1.33;;;;;;;6.77;100.00;100861.13;7363749;19;20442;-56
2022/02/08 14:15:46;;;;;;;5.53;2.60;;;;;;;6.84;100.00;100858.16;7360202;19;20417;-57
2022/02/08 14:18:41;;;;;;;3.53;1.60;;;;;;;6.81;100.00;100873.34;7398208;19;20391;-58
2022/02/08 14:21:20;;;;;;;2.33;1.70;;;;;;;6.81;100.00;100868.22;7397598;19;20462;-58
2022/02/08 14:32:14;;;;;;;4.50;1.80;;;;;;;6.83;100.00;100863.19;7398984;19;20399;-58
2022/02/08 15:05:25;;;;;;;3.07;1.30;;;;;;;6.71;100.00;100830.91;7276704;19;2909659;-57
2022/02/08 15:06:25;;;;;;;1.90;1.03;;;;;;;6.72;100.00;100836.91;7431406;19;20416;-57
2022/02/08 15:08:54;;;;;;;2.20;0.97;;;;;;;6.70;100.00;100838.50;7426599;19;20777;-57
2022/02/08 15:11:32;;;;;;;2.10;1.20;;;;;;;6.77;100.00;100839.75;7431697;19;21028;-57
2022/02/08 15:14:03;;;;;;;4.53;1.10;;;;;;;6.72;100.00;100852.31;7428731;19;20457;-57
2022/02/08 15:16:36;;;;;;;3.40;1.30;;;;;;;6.80;100.00;100851.06;7432258;19;20383;-59
2022/02/08 15:19:05;;;;;;;1.80;0.90;;;;;;;6.73;100.00;100854.94;7426393;19;20445;-58
2022/02/08 15:21:36;;;;;;;2.50;0.87;;;;;;;6.77;100.00;100873.94;7432069;19;20415;-55
2022/02/08 15:24:09;;;;;;;1.60;1.10;;;;;;;6.81;100.00;100882.75;7427781;19;20452;-57
2022/02/08 15:26:45;;;;;;;3.00;1.00;;;;;;;6.77;100.00;100873.94;7431943;19;20427;-58
2022/02/08 15:29:16;;;;;;;9.67;4.33;;;;;;;6.80;100.00;100881.84;7425534;19;20794;-54
2022/02/08 15:31:50;;;;;;;2.33;1.63;;;;;;;6.72;100.00;100889.06;7431683;19;20387;-57
2022/02/08 15:34:19;;;;;;;13.23;3.17;;;;;;;6.68;100.00;100889.72;7425083;19;20977;-56
2022/02/08 15:36:49;;;;;;;4.43;2.30;;;;;;;6.73;100.00;100892.53;7431204;19;20394;-56
2022/02/08 15:39:18;;;;;;;2.53;1.50;;;;;;;6.73;100.00;100889.97;7426903;19;20939;-58
2022/02/08 15:41:48;;;;;;;9.93;4.03;;;;;;;6.74;100.00;100896.88;7431347;19;20762;-58
2022/02/08 15:44:21;;;;;;;4.70;2.20;;;;;;;6.69;100.00;100904.28;7428162;19;20436;-58
2022/02/08 15:46:54;;;;;;;7.50;4.00;;;;;;;6.73;100.00;100900.22;7429993;19;20407;-58
2022/02/08 15:49:24;;;;;;;5.53;2.20;;;;;;;6.68;100.00;100912.78;7426207;19;20434;-54
2022/02/08 15:52:09;;;;;;;6.10;3.00;;;;;;;6.72;100.00;100911.28;7430994;19;20393;-58
2022/02/08 15:54:42;;;;;;;8.37;3.13;;;;;;;6.67;100.00;100910.97;7426678;19;20436;-56
2022/02/08 15:57:48;;;;;;;6.33;2.13;;;;;;;6.64;100.00;100920.19;7430805;19;20424;-55
2022/02/08 16:05:59;;;;;;;7.33;2.30;;;;;;;6.59;100.00;100925.03;7397820;19;20785;-56
2022/02/08 16:08:33;;;;;;;5.60;2.70;;;;;;;6.59;100.00;100922.47;7395123;19;20383;-59